Time;durP1;ratioP1;P1;durP2;ratioP2;P2;SDS_P1;SDS_P2;PMS_P1;PMS_P2;Temp;Humidity;BMP_temperature;BMP_pressure;BME280_temperature;BME280_humidity;BME280_pressure;Samples;Min_cycle;Max_cycle;Signal;HPM_P1;HPM_P2
2021/07/31 00:02:22;;;;;;;21.23;20.03;;;;;;;;;;5058720;28;20458;-71
2021/07/31 00:04:50;;;;;;;21.47;19.93;;;;;;;;;;5062041;28;20486;-71
2021/07/31 00:07:17;;;;;;;21.80;20.30;;;;;;;;;;5056613;28;20512;-71
2021/07/31 00:09:45;;;;;;;21.30;20.20;;;;;;;;;;5060280;28;20861;-71
2021/07/31 00:12:13;;;;;;;21.70;20.60;;;;;;;;;;5061360;28;20443;-70
2021/07/31 00:14:40;;;;;;;20.97;19.57;;;;;;;;;;5051935;28;20471;-70
2021/07/31 00:17:08;;;;;;;20.93;19.93;;;;;;;;;;5051940;28;20456;-70
2021/07/31 00:19:36;;;;;;;21.70;20.23;;;;;;;;;;5051290;28;21113;-70
2021/07/31 00:22:03;;;;;;;21.50;20.40;;;;;;;;;;5059319;28;20815;-70
2021/07/31 00:24:30;;;;;;;21.13;20.03;;;;;;;;;;5087145;22;21001;-64
2021/07/31 00:26:58;;;;;;;21.47;20.37;;;;;;;;;;5070627;28;20455;-64
2021/07/31 00:29:25;;;;;;;20.63;19.50;;;;;;;;;;5078130;28;20451;-65
2021/07/31 00:31:53;;;;;;;21.00;20.00;;;;;;;;;;5076613;28;20453;-64
2021/07/31 00:34:20;;;;;;;20.50;19.50;;;;;;;;;;5061928;28;20797;-64
2021/07/31 00:36:47;;;;;;;21.60;20.50;;;;;;;;;;5060648;28;20450;-64
2021/07/31 00:39:14;;;;;;;21.23;20.10;;;;;;;;;;5057679;28;20479;-64
2021/07/31 00:41:41;;;;;;;21.30;20.20;;;;;;;;;;5053729;28;20452;-64
2021/07/31 00:44:09;;;;;;;20.90;19.80;;;;;;;;;;5071118;28;20471;-64
2021/07/31 00:46:37;;;;;;;21.07;19.63;;;;;;;;;;5060731;28;20460;-63
2021/07/31 00:49:04;;;;;;;20.73;19.73;;;;;;;;;;5054091;28;20456;-63
2021/07/31 00:51:31;;;;;;;20.53;19.50;;;;;;;;;;5053081;28;20452;-63
2021/07/31 00:53:59;;;;;;;20.27;19.27;;;;;;;;;;5051142;28;20931;-69
2021/07/31 00:56:26;;;;;;;20.43;19.33;;;;;;;;;;5053725;28;20471;-66
2021/07/31 00:58:53;;;;;;;20.67;19.47;;;;;;;;;;5056969;28;20478;-66
2021/07/31 01:01:22;;;;;;;20.80;19.70;;;;;;;;;;5073820;28;20447;-64
2021/07/31 01:03:49;;;;;;;20.20;19.20;;;;;;;;;;5070537;28;21008;-64
2021/07/31 01:06:16;;;;;;;19.80;18.80;;;;;;;;;;5061654;28;20452;-66
2021/07/31 01:08:43;;;;;;;20.73;19.73;;;;;;;;;;5054535;28;20446;-64
2021/07/31 01:11:10;;;;;;;20.27;19.37;;;;;;;;;;5055518;28;20946;-65
2021/07/31 01:13:37;;;;;;;19.50;18.60;;;;;;;;;;5055523;28;20472;-64
2021/07/31 01:16:05;;;;;;;20.23;19.23;;;;;;;;;;5057184;28;20974;-65
2021/07/31 01:18:34;;;;;;;19.80;18.70;;;;;;;;;;5074078;28;21115;-64
2021/07/31 01:21:01;;;;;;;20.57;19.47;;;;;;;;;;5063030;28;20455;-63
2021/07/31 01:23:30;;;;;;;21.00;20.00;;;;;;;;;;5054571;28;20483;-64
2021/07/31 01:25:57;;;;;;;21.07;19.97;;;;;;;;;;5054693;28;20454;-63
2021/07/31 01:28:24;;;;;;;20.80;19.80;;;;;;;;;;5055522;28;20447;-64
2021/07/31 01:30:51;;;;;;;20.67;19.57;;;;;;;;;;5068906;28;20969;-62
2021/07/31 01:33:18;;;;;;;22.43;21.23;;;;;;;;;;5054380;28;20454;-64
2021/07/31 01:35:46;;;;;;;21.00;20.00;;;;;;;;;;5063734;28;20968;-65
2021/07/31 01:38:13;;;;;;;21.13;20.00;;;;;;;;;;5053896;28;20840;-64
2021/07/31 01:40:41;;;;;;;21.57;20.30;;;;;;;;;;5054654;28;20466;-64
2021/07/31 01:43:09;;;;;;;21.17;20.17;;;;;;;;;;5073622;28;21072;-64
2021/07/31 01:45:36;;;;;;;21.70;20.57;;;;;;;;;;5062527;28;20436;-64
2021/07/31 01:48:04;;;;;;;21.03;19.80;;;;;;;;;;5053727;28;20959;-64
2021/07/31 01:50:31;;;;;;;21.53;20.33;;;;;;;;;;5054987;28;20463;-64
2021/07/31 01:52:58;;;;;;;20.37;19.27;;;;;;;;;;5053914;28;20462;-64
2021/07/31 01:55:25;;;;;;;21.90;20.70;;;;;;;;;;5053827;28;20475;-64
2021/07/31 01:57:54;;;;;;;22.73;21.57;;;;;;;;;;5059718;28;20502;-64
2021/07/31 02:00:21;;;;;;;22.23;21.13;;;;;;;;;;5068968;28;20448;-64
2021/07/31 02:02:48;;;;;;;21.43;20.33;;;;;;;;;;5063908;28;20452;-63
2021/07/31 02:05:15;;;;;;;20.73;19.70;;;;;;;;;;5061560;28;21021;-65
2021/07/31 02:07:42;;;;;;;20.70;19.60;;;;;;;;;;5053850;28;20459;-64
2021/07/31 02:10:10;;;;;;;21.10;20.10;;;;;;;;;;5053798;28;20466;-61
2021/07/31 02:12:37;;;;;;;21.50;20.40;;;;;;;;;;5055221;28;20452;-62
2021/07/31 02:15:06;;;;;;;21.23;20.13;;;;;;;;;;5053537;28;20480;-62
2021/07/31 02:17:33;;;;;;;21.97;20.67;;;;;;;;;;5057468;28;20949;-62
2021/07/31 02:20:00;;;;;;;21.80;20.50;;;;;;;;;;5061567;28;20453;-62
2021/07/31 02:22:27;;;;;;;21.93;20.40;;;;;;;;;;5077627;28;20846;-62
2021/07/31 02:24:55;;;;;;;21.83;20.33;;;;;;;;;;5074902;28;20479;-63
2021/07/31 02:27:22;;;;;;;22.50;21.30;;;;;;;;;;5056978;28;20821;-62
2021/07/31 02:29:49;;;;;;;21.80;20.53;;;;;;;;;;5072366;28;20447;-62
2021/07/31 02:32:17;;;;;;;21.43;20.23;;;;;;;;;;5075764;28;20483;-63
2021/07/31 02:34:44;;;;;;;21.50;20.30;;;;;;;;;;5072345;28;21024;-62
2021/07/31 02:37:11;;;;;;;21.10;20.00;;;;;;;;;;5060429;28;20454;-63
2021/07/31 02:39:38;;;;;;;22.70;21.10;;;;;;;;;;5059368;28;20482;-63
2021/07/31 02:42:06;;;;;;;21.33;20.23;;;;;;;;;;5064831;28;20459;-63
2021/07/31 02:44:33;;;;;;;21.30;20.27;;;;;;;;;;5057268;28;20482;-65
2021/07/31 02:47:00;;;;;;;21.17;20.10;;;;;;;;;;5071154;28;20813;-63
2021/07/31 02:49:28;;;;;;;20.13;19.03;;;;;;;;;;5073025;28;20482;-63
2021/07/31 02:51:55;;;;;;;21.07;19.97;;;;;;;;;;5066370;28;21048;-63
2021/07/31 02:54:23;;;;;;;20.73;19.73;;;;;;;;;;5055340;28;20478;-63
2021/07/31 02:56:50;;;;;;;20.43;19.40;;;;;;;;;;5066333;28;20455;-64
2021/07/31 02:59:17;;;;;;;20.37;19.33;;;;;;;;;;5073794;28;20489;-62
2021/07/31 03:01:44;;;;;;;20.50;19.60;;;;;;;;;;5063702;28;20456;-63
2021/07/31 03:04:11;;;;;;;20.70;19.70;;;;;;;;;;5055932;28;20478;-63
2021/07/31 03:06:40;;;;;;;20.60;19.50;;;;;;;;;;5066523;28;20451;-63
2021/07/31 03:09:07;;;;;;;20.77;19.73;;;;;;;;;;5073201;28;20443;-63
2021/07/31 03:11:34;;;;;;;19.60;18.60;;;;;;;;;;5066788;28;20938;-63
2021/07/31 03:14:01;;;;;;;20.23;19.23;;;;;;;;;;5072582;28;20471;-64
2021/07/31 03:16:28;;;;;;;19.90;18.90;;;;;;;;;;5068537;28;20448;-63
2021/07/31 03:18:55;;;;;;;20.20;19.03;;;;;;;;;;5051846;28;20480;-63
2021/07/31 03:21:22;;;;;;;19.30;18.30;;;;;;;;;;5061380;28;20455;-64
2021/07/31 03:23:51;;;;;;;20.23;19.20;;;;;;;;;;5052728;28;20490;-63
2021/07/31 03:26:18;;;;;;;19.90;18.80;;;;;;;;;;5061522;28;20473;-63
2021/07/31 03:28:45;;;;;;;19.97;18.87;;;;;;;;;;5051920;28;20444;-64
2021/07/31 03:31:18;;;;;;;19.97;18.83;;;;;;;;;;5052345;28;20456;-62
2021/07/31 03:33:45;;;;;;;19.83;18.83;;;;;;;;;;5052431;28;20464;-63
2021/07/31 03:36:12;;;;;;;19.73;18.60;;;;;;;;;;5052782;28;20448;-63
2021/07/31 03:38:39;;;;;;;20.37;19.27;;;;;;;;;;5053313;28;20479;-63
2021/07/31 03:41:08;;;;;;;20.00;19.00;;;;;;;;;;5052563;28;20460;-63
2021/07/31 03:43:35;;;;;;;20.90;19.50;;;;;;;;;;5052404;28;20478;-63
2021/07/31 03:46:05;;;;;;;20.00;19.00;;;;;;;;;;5053028;28;20820;-63
2021/07/31 03:48:33;;;;;;;20.50;19.40;;;;;;;;;;5053005;28;20451;-63
2021/07/31 03:51:00;;;;;;;19.90;18.90;;;;;;;;;;5051992;28;20455;-64
2021/07/31 03:53:27;;;;;;;20.80;19.70;;;;;;;;;;5052630;28;20470;-63
2021/07/31 03:55:54;;;;;;;20.30;19.20;;;;;;;;;;5052649;28;20456;-63
2021/07/31 03:58:22;;;;;;;20.33;19.33;;;;;;;;;;5052632;28;20454;-63
2021/07/31 04:00:49;;;;;;;19.67;18.70;;;;;;;;;;5062856;28;20455;-62
2021/07/31 04:03:17;;;;;;;19.77;18.77;;;;;;;;;;5052890;28;20460;-63
2021/07/31 04:05:44;;;;;;;19.53;18.53;;;;;;;;;;5052661;28;20452;-62
2021/07/31 04:08:11;;;;;;;20.53;19.47;;;;;;;;;;5056346;28;20447;-62
2021/07/31 04:10:38;;;;;;;21.13;19.60;;;;;;;;;;5072484;28;20449;-62
2021/07/31 04:13:05;;;;;;;20.23;19.17;;;;;;;;;;5055199;28;20458;-62
2021/07/31 04:15:33;;;;;;;20.67;19.40;;;;;;;;;;5052481;28;20454;-62
2021/07/31 04:18:02;;;;;;;20.50;19.30;;;;;;;;;;5052332;28;20452;-62
2021/07/31 04:20:29;;;;;;;20.50;19.40;;;;;;;;;;5052290;28;20902;-62
2021/07/31 04:22:56;;;;;;;20.50;19.30;;;;;;;;;;5052437;28;20458;-62
2021/07/31 04:25:23;;;;;;;20.83;19.70;;;;;;;;;;5051691;28;20480;-61
2021/07/31 04:27:50;;;;;;;20.67;19.40;;;;;;;;;;5053946;28;20451;-62
2021/07/31 04:30:18;;;;;;;21.23;20.03;;;;;;;;;;5060397;28;20450;-63
2021/07/31 04:32:46;;;;;;;20.87;19.77;;;;;;;;;;5066430;28;21258;-62
2021/07/31 04:35:13;;;;;;;20.33;19.13;;;;;;;;;;5065940;28;20475;-63
2021/07/31 04:37:40;;;;;;;20.30;19.30;;;;;;;;;;5055952;28;20826;-62
2021/07/31 04:40:08;;;;;;;20.17;19.07;;;;;;;;;;5055721;28;20491;-62
2021/07/31 04:42:35;;;;;;;20.60;19.50;;;;;;;;;;5064919;28;20459;-62
2021/07/31 04:45:02;;;;;;;21.23;20.03;;;;;;;;;;5068924;28;20475;-62
2021/07/31 04:47:29;;;;;;;20.80;19.50;;;;;;;;;;5055690;28;20451;-62
2021/07/31 04:49:57;;;;;;;21.30;20.00;;;;;;;;;;5055695;28;20448;-62
2021/07/31 04:52:25;;;;;;;20.33;19.23;;;;;;;;;;5055596;28;20473;-62
2021/07/31 04:54:52;;;;;;;21.10;19.70;;;;;;;;;;5070559;28;20474;-62
2021/07/31 04:57:19;;;;;;;20.57;19.50;;;;;;;;;;5055490;28;20939;-63
2021/07/31 04:59:46;;;;;;;20.00;19.00;;;;;;;;;;5061407;28;20484;-62
2021/07/31 05:02:13;;;;;;;20.53;19.33;;;;;;;;;;5067333;28;20462;-62
2021/07/31 05:04:40;;;;;;;19.90;18.80;;;;;;;;;;5056079;28;20841;-62
2021/07/31 05:07:09;;;;;;;20.00;19.00;;;;;;;;;;5071434;28;20464;-62
2021/07/31 05:09:36;;;;;;;20.00;18.97;;;;;;;;;;5055180;28;20927;-62
2021/07/31 05:12:04;;;;;;;20.87;19.77;;;;;;;;;;5067699;28;21068;-62
2021/07/31 05:14:31;;;;;;;20.00;19.00;;;;;;;;;;5055227;28;20474;-62
2021/07/31 05:16:58;;;;;;;20.70;19.50;;;;;;;;;;5061980;28;20451;-63
2021/07/31 05:19:25;;;;;;;20.70;19.60;;;;;;;;;;5066747;28;20483;-62
2021/07/31 05:21:55;;;;;;;20.30;19.30;;;;;;;;;;5054767;28;20447;-62
2021/07/31 05:24:23;;;;;;;20.83;19.67;;;;;;;;;;5055246;28;20479;-62
2021/07/31 05:26:50;;;;;;;19.97;18.97;;;;;;;;;;5066567;28;20554;-62
2021/07/31 05:29:17;;;;;;;21.03;19.63;;;;;;;;;;5069480;28;20458;-62
2021/07/31 05:31:44;;;;;;;21.13;19.50;;;;;;;;;;5063201;28;20977;-62
2021/07/31 05:34:11;;;;;;;20.33;19.23;;;;;;;;;;5070448;28;20470;-62
2021/07/31 05:36:39;;;;;;;19.97;18.83;;;;;;;;;;5055385;28;20444;-62
2021/07/31 05:39:06;;;;;;;19.97;18.77;;;;;;;;;;5054838;28;20536;-62
2021/07/31 05:41:35;;;;;;;19.73;18.63;;;;;;;;;;5067634;28;20455;-62
2021/07/31 05:44:02;;;;;;;20.33;19.10;;;;;;;;;;5054718;28;20479;-62
2021/07/31 05:46:29;;;;;;;20.43;18.87;;;;;;;;;;5060254;28;20451;-63
2021/07/31 05:48:56;;;;;;;20.13;18.83;;;;;;;;;;5054435;28;20452;-63
2021/07/31 05:51:23;;;;;;;20.90;19.50;;;;;;;;;;5054983;28;20452;-63
2021/07/31 05:53:50;;;;;;;19.97;18.97;;;;;;;;;;5053812;28;21016;-63
2021/07/31 05:56:18;;;;;;;21.10;19.30;;;;;;;;;;5054718;28;20458;-63
2021/07/31 05:58:46;;;;;;;19.93;18.93;;;;;;;;;;5054494;28;20455;-62
2021/07/31 06:01:13;;;;;;;20.83;19.63;;;;;;;;;;5054734;28;20458;-62
2021/07/31 06:03:40;;;;;;;20.03;18.93;;;;;;;;;;5053900;28;20994;-63
2021/07/31 06:06:08;;;;;;;19.90;18.80;;;;;;;;;;5053848;28;20926;-63
2021/07/31 06:08:35;;;;;;;19.97;18.87;;;;;;;;;;5054814;28;20452;-63
2021/07/31 06:11:02;;;;;;;20.33;19.03;;;;;;;;;;5053946;28;20454;-63
2021/07/31 06:13:29;;;;;;;20.27;19.17;;;;;;;;;;5054304;28;20467;-63
2021/07/31 06:15:57;;;;;;;20.03;18.87;;;;;;;;;;5055082;28;20452;-63
2021/07/31 06:18:25;;;;;;;20.73;19.63;;;;;;;;;;5056545;28;20448;-63
2021/07/31 06:20:52;;;;;;;20.80;19.40;;;;;;;;;;5055949;28;20490;-63
2021/07/31 06:23:19;;;;;;;20.93;19.50;;;;;;;;;;5056576;28;20819;-64
2021/07/31 06:25:46;;;;;;;20.33;19.10;;;;;;;;;;5067360;22;20504;-70
2021/07/31 06:28:14;;;;;;;20.93;19.60;;;;;;;;;;5062007;28;20834;-68
2021/07/31 06:30:43;;;;;;;20.83;19.50;;;;;;;;;;5052724;28;20444;-69
2021/07/31 06:33:12;;;;;;;20.83;19.50;;;;;;;;;;5053670;28;20455;-70
2021/07/31 06:35:39;;;;;;;20.80;19.70;;;;;;;;;;5066639;28;20962;-70
2021/07/31 06:38:07;;;;;;;21.07;19.80;;;;;;;;;;5065730;28;20449;-70
2021/07/31 06:40:34;;;;;;;21.00;19.90;;;;;;;;;;5066263;28;20483;-70
2021/07/31 06:43:01;;;;;;;21.37;20.17;;;;;;;;;;5054339;28;20451;-71
2021/07/31 06:45:28;;;;;;;21.40;20.07;;;;;;;;;;5054282;28;20471;-71
2021/07/31 06:47:55;;;;;;;21.20;20.10;;;;;;;;;;5064607;28;20451;-71
2021/07/31 06:50:24;;;;;;;22.07;20.87;;;;;;;;;;5058345;28;20441;-71
2021/07/31 06:52:51;;;;;;;22.53;21.10;;;;;;;;;;5053862;28;20447;-71
2021/07/31 06:55:18;;;;;;;23.13;21.73;;;;;;;;;;5053978;28;20478;-71
2021/07/31 06:57:45;;;;;;;22.50;21.37;;;;;;;;;;5053345;28;20451;-69
2021/07/31 07:00:13;;;;;;;23.43;22.03;;;;;;;;;;5064678;28;20496;-74
2021/07/31 07:02:40;;;;;;;23.37;22.07;;;;;;;;;;5071316;28;20479;-70
2021/07/31 07:05:07;;;;;;;22.60;21.40;;;;;;;;;;5067901;28;20471;-70
2021/07/31 07:07:37;;;;;;;27.30;25.90;;;;;;;;;;5070185;28;20449;-70
2021/07/31 07:10:04;;;;;;;25.57;24.27;;;;;;;;;;5068943;28;20836;-70
2021/07/31 07:12:31;;;;;;;25.90;24.37;;;;;;;;;;5064466;28;20451;-70
2021/07/31 07:14:58;;;;;;;26.10;24.70;;;;;;;;;;5052417;28;20473;-70
2021/07/31 07:17:25;;;;;;;26.50;25.00;;;;;;;;;;5062669;28;20505;-70
2021/07/31 07:19:53;;;;;;;26.43;24.97;;;;;;;;;;5057217;28;20501;-70
2021/07/31 07:22:20;;;;;;;26.53;24.83;;;;;;;;;;5054504;28;20825;-70
2021/07/31 07:24:49;;;;;;;25.13;23.73;;;;;;;;;;5057249;28;20483;-70
2021/07/31 07:27:16;;;;;;;24.20;22.73;;;;;;;;;;5053328;28;20470;-70
2021/07/31 07:29:43;;;;;;;23.90;22.60;;;;;;;;;;5055123;28;20466;-70
2021/07/31 07:32:11;;;;;;;25.73;24.43;;;;;;;;;;5063458;28;20463;-70
2021/07/31 07:34:39;;;;;;;25.47;23.97;;;;;;;;;;5053862;28;20467;-71
2021/07/31 07:37:06;;;;;;;25.40;24.00;;;;;;;;;;5052529;28;20542;-72
2021/07/31 07:39:33;;;;;;;25.33;24.03;;;;;;;;;;5053210;28;20452;-71
2021/07/31 07:42:04;;;;;;;25.67;24.37;;;;;;;;;;5055803;28;20454;-71
2021/07/31 07:44:31;;;;;;;23.10;21.70;;;;;;;;;;5057069;28;20463;-71
2021/07/31 07:46:58;;;;;;;23.40;22.10;;;;;;;;;;5048835;28;20967;-71
2021/07/31 07:49:25;;;;;;;25.43;23.80;;;;;;;;;;5060714;28;20505;-70
2021/07/31 07:51:52;;;;;;;25.30;23.80;;;;;;;;;;5070796;28;20451;-72
2021/07/31 07:54:19;;;;;;;24.07;22.57;;;;;;;;;;5051943;28;20483;-70
2021/07/31 07:56:46;;;;;;;21.53;20.30;;;;;;;;;;5052674;28;20806;-70
2021/07/31 07:59:15;;;;;;;25.00;23.60;;;;;;;;;;5051517;28;20448;-70
2021/07/31 08:01:42;;;;;;;26.07;24.67;;;;;;;;;;5052524;28;20491;-70
2021/07/31 08:04:09;;;;;;;21.03;19.90;;;;;;;;;;5052821;28;20483;-70
2021/07/31 08:06:38;;;;;;;22.60;21.10;;;;;;;;;;5050068;28;20467;-70
2021/07/31 08:09:05;;;;;;;22.33;21.13;;;;;;;;;;5060325;28;20447;-70
2021/07/31 08:11:32;;;;;;;24.40;22.60;;;;;;;;;;5051641;28;20462;-70
2021/07/31 08:13:59;;;;;;;24.60;23.20;;;;;;;;;;5050397;28;20482;-66
2021/07/31 08:16:28;;;;;;;25.30;23.93;;;;;;;;;;5052187;28;20794;-67
2021/07/31 08:18:55;;;;;;;22.70;21.17;;;;;;;;;;5056993;28;20446;-69
2021/07/31 08:21:22;;;;;;;23.00;21.60;;;;;;;;;;5057394;28;20468;-69
2021/07/31 08:23:49;;;;;;;23.80;22.40;;;;;;;;;;5052805;28;20455;-66
2021/07/31 08:26:16;;;;;;;24.07;22.50;;;;;;;;;;5052690;28;20440;-65
2021/07/31 08:28:43;;;;;;;23.37;21.80;;;;;;;;;;5052504;28;20539;-67
2021/07/31 08:31:11;;;;;;;23.17;21.67;;;;;;;;;;5062726;28;20438;-67
2021/07/31 08:33:40;;;;;;;22.27;20.90;;;;;;;;;;5059978;28;20462;-67
2021/07/31 08:36:09;;;;;;;22.13;21.03;;;;;;;;;;5061964;28;20443;-68
2021/07/31 08:38:36;;;;;;;22.50;20.97;;;;;;;;;;5072881;28;20447;-67
2021/07/31 08:41:04;;;;;;;22.73;21.53;;;;;;;;;;5071210;28;20483;-67
2021/07/31 08:43:31;;;;;;;23.10;21.70;;;;;;;;;;5055820;28;20483;-67
2021/07/31 08:45:59;;;;;;;25.53;24.03;;;;;;;;;;5052369;28;20550;-67
2021/07/31 08:48:27;;;;;;;25.50;24.03;;;;;;;;;;5051990;28;20452;-67
2021/07/31 08:50:58;;;;;;;28.07;25.30;;;;;;;;;;5051733;28;20502;-66
2021/07/31 08:53:25;;;;;;;26.30;24.63;;;;;;;;;;5052912;28;20436;-66
2021/07/31 08:55:53;;;;;;;25.40;23.60;;;;;;;;;;5054092;28;20475;-67
2021/07/31 08:58:23;;;;;;;26.63;25.03;;;;;;;;;;5070876;28;20452;-66
2021/07/31 09:00:50;;;;;;;25.93;24.43;;;;;;;;;;5072063;28;20486;-67
2021/07/31 09:03:17;;;;;;;24.97;23.53;;;;;;;;;;5071467;28;20446;-67
2021/07/31 09:05:45;;;;;;;25.60;24.10;;;;;;;;;;5072513;28;20473;-67
2021/07/31 09:08:13;;;;;;;25.50;24.00;;;;;;;;;;5064032;28;20451;-67
2021/07/31 09:10:41;;;;;;;28.70;27.10;;;;;;;;;;5052541;28;20451;-67
2021/07/31 09:13:09;;;;;;;28.50;27.10;;;;;;;;;;5052161;28;20477;-67
2021/07/31 09:15:37;;;;;;;28.00;26.47;;;;;;;;;;5051858;28;20476;-66
2021/07/31 09:18:20;;;;;;;24.50;23.00;;;;;;;;;;5053433;28;20451;-66
2021/07/31 09:20:54;;;;;;;23.70;22.03;;;;;;;;;;5055378;28;20895;-67
2021/07/31 09:23:22;;;;;;;24.50;23.20;;;;;;;;;;5049957;28;20440;-70
2021/07/31 09:25:59;;;;;;;24.70;23.20;;;;;;;;;;5075894;28;21020;-69
2021/07/31 09:28:26;;;;;;;22.87;21.37;;;;;;;;;;5074084;28;20446;-69
2021/07/31 09:30:53;;;;;;;24.33;22.70;;;;;;;;;;5054190;28;20841;-69
2021/07/31 09:33:20;;;;;;;23.40;21.93;;;;;;;;;;5052338;28;20849;-68
2021/07/31 09:35:48;;;;;;;21.67;19.80;;;;;;;;;;5054937;28;20533;-69
2021/07/31 09:38:15;;;;;;;22.10;20.80;;;;;;;;;;5055780;28;20451;-69
2021/07/31 09:40:43;;;;;;;20.90;19.60;;;;;;;;;;5054412;28;20580;-68
2021/07/31 09:43:14;;;;;;;22.93;21.10;;;;;;;;;;5054458;28;20456;-69
2021/07/31 09:45:42;;;;;;;21.37;20.27;;;;;;;;;;5053970;28;20479;-69
2021/07/31 09:48:10;;;;;;;21.00;19.80;;;;;;;;;;5055094;28;20970;-69
2021/07/31 09:50:38;;;;;;;21.77;20.57;;;;;;;;;;5054318;28;20459;-69
2021/07/31 09:53:09;;;;;;;26.07;24.57;;;;;;;;;;5053310;28;20455;-69
2021/07/31 09:55:38;;;;;;;23.27;21.97;;;;;;;;;;5047811;28;20464;-69
2021/07/31 09:58:08;;;;;;;23.93;22.53;;;;;;;;;;5054178;28;20825;-71
2021/07/31 10:00:36;;;;;;;23.33;22.10;;;;;;;;;;5054284;28;20502;-71
2021/07/31 10:03:03;;;;;;;22.87;21.60;;;;;;;;;;5053214;28;20943;-71
2021/07/31 10:05:30;;;;;;;23.30;22.10;;;;;;;;;;5053726;28;20849;-71
2021/07/31 10:07:57;;;;;;;22.73;21.47;;;;;;;;;;5054088;28;20458;-71
2021/07/31 10:10:24;;;;;;;23.50;22.20;;;;;;;;;;5054869;28;20450;-68
2021/07/31 10:12:51;;;;;;;22.33;21.13;;;;;;;;;;5036471;28;20528;-69
2021/07/31 10:15:20;;;;;;;23.87;22.40;;;;;;;;;;5047167;28;20472;-69
2021/07/31 10:17:47;;;;;;;23.50;22.23;;;;;;;;;;5043422;28;20822;-69
2021/07/31 10:20:23;;;;;;;22.23;21.13;;;;;;;;;;5050986;28;20475;-68
2021/07/31 10:22:50;;;;;;;22.77;21.57;;;;;;;;;;5063128;28;21024;-69
2021/07/31 10:25:17;;;;;;;22.80;21.60;;;;;;;;;;5072158;28;20478;-68
2021/07/31 10:27:45;;;;;;;23.70;22.40;;;;;;;;;;5056199;28;20955;-71
2021/07/31 10:30:27;;;;;;;22.67;21.57;;;;;;;;;;5052071;28;20459;-72
2021/07/31 10:32:55;;;;;;;20.00;18.80;;;;;;;;;;5033258;28;20444;-71
2021/07/31 10:35:35;;;;;;;22.90;21.70;;;;;;;;;;5033128;28;20469;-72
2021/07/31 10:38:03;;;;;;;21.60;20.40;;;;;;;;;;5033256;28;20494;-71
2021/07/31 10:40:44;;;;;;;22.37;21.17;;;;;;;;;;5035973;28;20556;-69
2021/07/31 10:43:12;;;;;;;22.30;21.00;;;;;;;;;;5057421;28;21042;-69
2021/07/31 10:45:40;;;;;;;21.10;20.10;;;;;;;;;;5056675;28;20503;-69
2021/07/31 10:48:22;;;;;;;20.13;19.13;;;;;;;;;;5063044;28;20466;-70
2021/07/31 10:50:50;;;;;;;22.33;20.93;;;;;;;;;;5053187;28;20424;-72
2021/07/31 10:53:19;;;;;;;19.60;18.60;;;;;;;;;;5053661;28;20452;-72
2021/07/31 10:56:01;;;;;;;20.10;19.10;;;;;;;;;;5051989;28;21009;-72
2021/07/31 10:58:30;;;;;;;19.90;18.73;;;;;;;;;;5049998;28;20456;-72
2021/07/31 11:01:12;;;;;;;19.40;18.40;;;;;;;;;;5052396;28;20482;-71
2021/07/31 11:03:41;;;;;;;19.30;18.20;;;;;;;;;;5051707;28;20451;-71
2021/07/31 11:06:09;;;;;;;19.90;18.90;;;;;;;;;;5051495;28;20837;-72
2021/07/31 11:08:56;;;;;;;19.87;18.87;;;;;;;;;;5060015;28;20456;-69
2021/07/31 11:11:26;;;;;;;19.80;18.80;;;;;;;;;;5058970;28;20455;-70
2021/07/31 11:13:54;;;;;;;19.67;18.67;;;;;;;;;;5061258;28;20458;-69
2021/07/31 11:16:22;;;;;;;19.70;18.50;;;;;;;;;;5053551;28;20456;-69
2021/07/31 11:18:52;;;;;;;20.90;19.57;;;;;;;;;;5053991;28;20454;-69
2021/07/31 11:21:20;;;;;;;20.20;19.10;;;;;;;;;;5053415;28;20483;-68
2021/07/31 11:23:47;;;;;;;19.90;18.80;;;;;;;;;;5052845;28;20462;-69
2021/07/31 11:26:31;;;;;;;20.03;18.93;;;;;;;;;;5053280;28;20458;-69
2021/07/31 11:28:58;;;;;;;19.60;18.40;;;;;;;;;;5054975;28;20448;-69
2021/07/31 11:31:26;;;;;;;19.90;18.87;;;;;;;;;;5053547;28;20460;-71
2021/07/31 11:34:06;;;;;;;19.23;18.03;;;;;;;;;;5052698;28;20452;-69
2021/07/31 11:36:33;;;;;;;19.97;18.90;;;;;;;;;;5052959;28;20459;-69
2021/07/31 11:39:01;;;;;;;20.00;18.90;;;;;;;;;;5052813;28;20444;-69
2021/07/31 11:41:29;;;;;;;19.20;18.10;;;;;;;;;;5052569;28;20475;-69
2021/07/31 11:43:57;;;;;;;19.80;18.80;;;;;;;;;;5058677;28;20818;-69
2021/07/31 11:46:25;;;;;;;19.87;18.77;;;;;;;;;;5056137;28;20462;-69
2021/07/31 11:48:52;;;;;;;19.60;18.50;;;;;;;;;;5071348;28;20499;-69
2021/07/31 11:51:21;;;;;;;20.30;19.17;;;;;;;;;;5070536;28;20504;-69
2021/07/31 11:53:49;;;;;;;20.03;19.03;;;;;;;;;;5058042;28;20447;-69
2021/07/31 11:56:17;;;;;;;20.37;19.27;;;;;;;;;;5053581;28;20447;-69
2021/07/31 11:58:45;;;;;;;21.20;20.10;;;;;;;;;;5053020;28;20466;-69
2021/07/31 12:01:13;;;;;;;19.87;18.87;;;;;;;;;;5053182;28;20476;-69
2021/07/31 12:03:41;;;;;;;20.90;19.90;;;;;;;;;;5063437;28;20458;-69
2021/07/31 12:06:25;;;;;;;19.90;18.90;;;;;;;;;;5055646;28;20456;-69
2021/07/31 12:08:53;;;;;;;20.63;19.33;;;;;;;;;;5053097;28;20432;-69
2021/07/31 12:11:31;;;;;;;20.87;19.67;;;;;;;;;;5071341;28;20447;-69
2021/07/31 12:13:58;;;;;;;20.60;19.60;;;;;;;;;;5060753;28;20483;-69
2021/07/31 12:16:28;;;;;;;20.10;18.90;;;;;;;;;;5051239;28;20470;-69
2021/07/31 12:18:55;;;;;;;20.90;19.70;;;;;;;;;;5051493;28;20959;-71
2021/07/31 12:21:26;;;;;;;20.83;19.63;;;;;;;;;;5050869;28;20487;-71
2021/07/31 12:23:54;;;;;;;20.57;18.97;;;;;;;;;;5049385;28;20510;-69
2021/07/31 12:26:31;;;;;;;20.80;19.60;;;;;;;;;;5052703;28;20446;-69
2021/07/31 12:28:59;;;;;;;20.47;19.37;;;;;;;;;;5061503;28;20464;-71
2021/07/31 12:31:26;;;;;;;20.20;19.20;;;;;;;;;;5049968;28;20470;-71
2021/07/31 12:33:54;;;;;;;20.30;19.20;;;;;;;;;;5052939;28;20480;-71
2021/07/31 12:36:21;;;;;;;21.00;19.73;;;;;;;;;;5061880;28;20444;-72
2021/07/31 12:38:50;;;;;;;20.67;19.43;;;;;;;;;;5051950;28;20462;-71
2021/07/31 12:41:23;;;;;;;21.10;20.00;;;;;;;;;;5054549;28;20558;-71
2021/07/31 12:43:50;;;;;;;20.73;19.40;;;;;;;;;;5051391;28;20482;-71
2021/07/31 12:46:17;;;;;;;20.63;19.33;;;;;;;;;;5052693;28;20451;-72
2021/07/31 12:48:45;;;;;;;25.37;23.57;;;;;;;;;;5056415;28;20454;-71
2021/07/31 12:51:12;;;;;;;22.37;20.87;;;;;;;;;;5051192;28;20460;-72
2021/07/31 12:53:39;;;;;;;24.43;22.77;;;;;;;;;;5081310;22;20522;-71
2021/07/31 12:56:06;;;;;;;21.77;20.53;;;;;;;;;;5074184;28;20829;-72
2021/07/31 12:58:35;;;;;;;22.63;21.43;;;;;;;;;;5074675;28;20442;-72
2021/07/31 13:01:03;;;;;;;22.87;21.50;;;;;;;;;;5073018;28;20820;-72
2021/07/31 13:03:30;;;;;;;23.00;21.70;;;;;;;;;;5074125;28;20481;-71
2021/07/31 13:05:57;;;;;;;24.63;23.13;;;;;;;;;;5074808;28;20959;-71
2021/07/31 13:08:25;;;;;;;22.90;21.30;;;;;;;;;;5073779;28;20451;-72
2021/07/31 13:10:53;;;;;;;22.10;20.87;;;;;;;;;;5074377;28;20451;-72
2021/07/31 13:13:22;;;;;;;22.60;21.30;;;;;;;;;;5074587;28;20462;-72
2021/07/31 13:15:50;;;;;;;21.93;20.80;;;;;;;;;;5073821;28;20446;-71
2021/07/31 13:18:21;;;;;;;22.13;20.90;;;;;;;;;;5073759;28;20446;-72
2021/07/31 13:20:50;;;;;;;21.77;20.57;;;;;;;;;;5073676;28;20447;-71
2021/07/31 13:23:17;;;;;;;21.90;20.70;;;;;;;;;;5073763;28;20914;-72
2021/07/31 13:25:44;;;;;;;21.13;20.00;;;;;;;;;;5075318;28;20447;-69
2021/07/31 13:28:11;;;;;;;20.70;19.50;;;;;;;;;;5075878;28;20469;-69
2021/07/31 13:30:39;;;;;;;21.40;20.20;;;;;;;;;;5074468;28;20459;-69
2021/07/31 13:33:07;;;;;;;21.43;20.13;;;;;;;;;;5074274;28;21009;-69
2021/07/31 13:35:35;;;;;;;21.20;20.10;;;;;;;;;;5074843;28;20465;-70
2021/07/31 13:38:03;;;;;;;21.40;20.23;;;;;;;;;;5074859;28;20458;-70
2021/07/31 13:40:35;;;;;;;20.80;19.70;;;;;;;;;;5073537;28;21109;-70
2021/07/31 13:43:03;;;;;;;21.47;20.37;;;;;;;;;;5073264;28;20490;-70
2021/07/31 13:45:30;;;;;;;22.57;21.27;;;;;;;;;;5073249;28;20469;-70
2021/07/31 13:47:57;;;;;;;22.10;21.00;;;;;;;;;;5075923;28;20450;-69
2021/07/31 13:50:25;;;;;;;23.53;22.03;;;;;;;;;;5073947;28;20477;-69
2021/07/31 13:52:53;;;;;;;52.43;48.87;;;;;;;;;;5074422;28;20453;-69
2021/07/31 13:55:20;;;;;;;54.27;50.30;;;;;;;;;;5073660;28;20467;-69
2021/07/31 13:57:47;;;;;;;73.70;69.10;;;;;;;;;;5073714;28;20453;-70
2021/07/31 14:00:14;;;;;;;75.13;70.23;;;;;;;;;;5067565;28;20847;-70
2021/07/31 14:02:42;;;;;;;95.03;89.20;;;;;;;;;;5072964;28;20479;-70
2021/07/31 14:05:09;;;;;;;116.20;109.40;;;;;;;;;;5069443;28;20467;-70
2021/07/31 14:07:38;;;;;;;129.73;122.23;;;;;;;;;;5067959;28;20461;-70
2021/07/31 14:10:05;;;;;;;132.80;124.90;;;;;;;;;;5072391;28;20467;-70
2021/07/31 14:12:33;;;;;;;148.00;139.27;;;;;;;;;;5072944;28;20447;-70
2021/07/31 14:15:00;;;;;;;169.67;158.97;;;;;;;;;;5072055;28;20851;-70
2021/07/31 14:17:27;;;;;;;281.77;265.07;;;;;;;;;;5073262;28;20458;-70
2021/07/31 14:19:54;;;;;;;298.93;281.70;;;;;;;;;;5071832;28;20474;-69
2021/07/31 14:22:21;;;;;;;298.77;282.20;;;;;;;;;;5073099;28;20489;-69